createdAt,value
2022-10-26T00:01:05.857Z,9.05
2022-10-26T00:03:33.851Z,9.10
2022-10-26T00:06:20.455Z,8.65
2022-10-26T00:08:48.239Z,8.63
2022-10-26T00:11:16.139Z,9.85
2022-10-26T00:13:43.657Z,8.55
2022-10-26T00:16:12.321Z,9.45
2022-10-26T00:18:40.054Z,9.45
2022-10-26T00:21:08.143Z,9.70
2022-10-26T00:23:35.428Z,9.82
2022-10-26T00:26:02.949Z,9.95
2022-10-26T00:28:30.369Z,9.32
2022-10-26T00:31:01.318Z,9.05
2022-10-26T00:33:30.194Z,9.85
2022-10-26T00:35:57.645Z,9.00
2022-10-26T00:38:24.941Z,9.65
2022-10-26T00:40:52.358Z,9.77
2022-10-26T00:43:22.687Z,11.35
2022-10-26T00:45:56.114Z,9.73
2022-10-26T00:48:28.758Z,10.02
2022-10-26T00:50:57.354Z,10.18
2022-10-26T00:53:24.719Z,10.55
2022-10-26T00:55:53.257Z,10.45
2022-10-26T00:58:21.664Z,10.65
2022-10-26T01:00:49.750Z,10.95
2022-10-26T01:03:17.855Z,11.63
2022-10-26T01:05:46.050Z,11.02
2022-10-26T01:08:13.931Z,11.75
2022-10-26T01:10:42.523Z,12.27
2022-10-26T01:13:10.007Z,11.80
2022-10-26T01:15:49.425Z,12.88
2022-10-26T01:18:23.477Z,12.98
2022-10-26T01:21:09.297Z,13.30
2022-10-26T01:23:36.548Z,13.93
2022-10-26T01:26:18.417Z,13.52
2022-10-26T01:28:51.550Z,13.45
2022-10-26T01:31:21.667Z,13.73
2022-10-26T01:33:52.832Z,14.30
2022-10-26T01:38:59.155Z,12.80
2022-10-26T01:41:31.973Z,13.77
2022-10-26T01:44:02.291Z,13.90
2022-10-26T01:46:31.454Z,11.90
2022-10-26T01:49:00.249Z,13.75
2022-10-26T01:51:28.301Z,12.77
2022-10-26T01:53:55.602Z,13.95
2022-10-26T01:56:26.827Z,14.23
2022-10-26T02:01:27.506Z,13.68
2022-10-26T02:04:00.334Z,13.75
2022-10-26T02:06:36.958Z,14.82
2022-10-26T02:09:04.248Z,14.88
2022-10-26T02:11:40.233Z,14.95
2022-10-26T02:14:16.787Z,14.57
2022-10-26T02:16:54.134Z,14.43
2022-10-26T02:19:44.194Z,14.10
2022-10-26T02:22:22.859Z,14.15
2022-10-26T02:24:52.182Z,14.88
2022-10-26T02:27:22.524Z,15.20
2022-10-26T02:29:52.174Z,15.53
2022-10-26T02:32:20.606Z,15.98
2022-10-26T02:34:49.105Z,16.05
2022-10-26T02:37:19.575Z,15.18
2022-10-26T02:39:48.919Z,15.45
2022-10-26T02:42:16.632Z,15.65
2022-10-26T02:44:47.019Z,15.38
2022-10-26T02:47:14.328Z,15.50
2022-10-26T02:49:41.980Z,15.48
2022-10-26T02:52:16.315Z,14.60
2022-10-26T02:55:09.993Z,15.82
2022-10-26T02:57:41.465Z,14.57
2022-10-26T03:02:38.279Z,15.95
2022-10-26T03:05:16.673Z,14.50
2022-10-26T03:07:43.904Z,14.95
2022-10-26T03:10:11.467Z,16.88
2022-10-26T03:12:39.198Z,13.90
2022-10-26T03:15:06.945Z,14.98
2022-10-26T03:17:34.211Z,15.20
2022-10-26T03:20:01.548Z,15.73
2022-10-26T03:22:28.822Z,15.40
2022-10-26T03:24:56.088Z,16.38
2022-10-26T03:27:23.589Z,16.77
2022-10-26T03:29:50.874Z,17.13
2022-10-26T03:32:18.179Z,17.50
2022-10-26T03:34:45.428Z,17.38
2022-10-26T03:37:12.757Z,16.77
2022-10-26T03:39:40.010Z,17.08
2022-10-26T03:42:07.287Z,16.80
2022-10-26T03:44:34.549Z,17.40
2022-10-26T03:47:01.809Z,18.58
2022-10-26T03:49:29.060Z,18.10
2022-10-26T03:51:56.295Z,17.75
2022-10-26T03:54:23.563Z,18.42
2022-10-26T03:56:52.770Z,18.55
2022-10-26T03:59:22.341Z,17.95
2022-10-26T04:01:52.748Z,19.10
2022-10-26T04:04:22.864Z,18.20
2022-10-26T04:06:50.152Z,18.20
2022-10-26T04:09:17.431Z,18.75
2022-10-26T04:11:44.784Z,18.13
2022-10-26T04:14:12.214Z,18.90
2022-10-26T04:16:39.429Z,18.13
2022-10-26T04:19:07.391Z,18.30
2022-10-26T04:21:35.532Z,18.50
2022-10-26T04:24:03.148Z,17.20
2022-10-26T04:26:30.446Z,18.75
2022-10-26T04:28:57.741Z,18.58
2022-10-26T04:31:25.240Z,18.90
2022-10-26T04:33:52.508Z,18.90
2022-10-26T04:36:19.764Z,18.17
2022-10-26T04:38:48.964Z,18.25
2022-10-26T04:41:16.493Z,17.90
2022-10-26T04:43:43.810Z,17.85
2022-10-26T04:46:16.567Z,17.50
2022-10-26T04:48:44.228Z,16.45
2022-10-26T04:51:11.473Z,17.67
2022-10-26T04:53:38.745Z,17.90
2022-10-26T04:56:06.056Z,16.05
2022-10-26T04:58:33.292Z,17.80
2022-10-26T05:01:02.713Z,16.80
2022-10-26T05:03:30.243Z,16.80
2022-10-26T05:05:59.866Z,16.75
2022-10-26T05:08:28.658Z,16.35
2022-10-26T05:10:56.222Z,15.77
2022-10-26T05:13:23.633Z,15.15
2022-10-26T05:15:54.297Z,15.43
2022-10-26T05:18:21.622Z,16.10
2022-10-26T05:20:50.439Z,15.50
2022-10-26T05:23:20.510Z,13.48
2022-10-26T05:25:48.157Z,13.25
2022-10-26T05:28:19.042Z,12.93
2022-10-26T05:30:46.799Z,11.25
2022-10-26T05:33:15.023Z,11.68
2022-10-26T05:35:42.284Z,10.98
2022-10-26T05:38:10.458Z,10.90
2022-10-26T05:40:38.011Z,10.98
2022-10-26T05:43:05.348Z,10.10
2022-10-26T05:45:32.591Z,10.77
2022-10-26T05:48:02.572Z,11.10
2022-10-26T05:50:30.751Z,11.93
2022-10-26T05:52:58.050Z,10.10
2022-10-26T05:55:25.519Z,9.90
2022-10-26T05:57:53.099Z,10.77
2022-10-26T06:00:21.866Z,11.32
2022-10-26T06:02:57.895Z,10.23
2022-10-26T06:05:27.361Z,10.85
2022-10-26T06:07:54.827Z,11.25
2022-10-26T06:10:22.182Z,10.73
2022-10-26T06:12:49.805Z,10.52
2022-10-26T06:15:19.332Z,9.82
2022-10-26T06:17:46.577Z,8.93
2022-10-26T06:20:40.082Z,8.55
2022-10-26T06:23:33.799Z,9.07
2022-10-26T06:26:12.862Z,9.93
2022-10-26T06:28:50.864Z,9.82
2022-10-26T06:31:18.456Z,9.40
2022-10-26T06:33:45.838Z,10.45
2022-10-26T06:36:22.578Z,10.00
2022-10-26T06:38:51.798Z,9.00
2022-10-26T06:41:19.585Z,8.93
2022-10-26T06:43:47.041Z,8.23
2022-10-26T06:46:23.699Z,8.73
2022-10-26T06:48:51.049Z,8.13
2022-10-26T06:51:18.558Z,8.00
2022-10-26T06:53:53.257Z,7.78
2022-10-26T06:56:20.803Z,7.68
2022-10-26T06:58:49.649Z,7.80
2022-10-26T07:01:17.614Z,7.38
2022-10-26T07:03:44.960Z,7.72
2022-10-26T07:06:12.193Z,7.50
2022-10-26T07:08:39.583Z,8.43
2022-10-26T07:11:06.836Z,7.75
2022-10-26T07:13:34.107Z,7.32
2022-10-26T07:16:01.699Z,7.63
2022-10-26T07:18:28.952Z,8.73
2022-10-26T07:20:56.205Z,8.23
2022-10-26T07:23:23.819Z,8.60
2022-10-26T07:25:51.101Z,9.32
2022-10-26T07:28:18.318Z,9.02
2022-10-26T07:30:45.609Z,8.77
2022-10-26T07:33:14.116Z,8.35
2022-10-26T07:35:41.474Z,7.30
2022-10-26T07:38:11.267Z,7.00
2022-10-26T07:40:38.546Z,7.97
2022-10-26T07:43:06.071Z,8.90
2022-10-26T07:45:34.123Z,8.02
2022-10-26T07:48:01.428Z,7.50
2022-10-26T07:50:29.047Z,7.80
2022-10-26T07:52:56.373Z,7.00
2022-10-26T07:55:23.651Z,7.90
2022-10-26T07:57:52.606Z,7.40
2022-10-26T08:00:22.133Z,7.05
2022-10-26T08:02:49.452Z,6.38
2022-10-26T08:05:16.829Z,8.05
2022-10-26T08:07:45.445Z,7.70
2022-10-26T08:10:13.443Z,7.57
2022-10-26T08:12:41.431Z,7.43
2022-10-26T08:15:09.220Z,8.00
2022-10-26T08:17:36.601Z,6.57
2022-10-26T08:20:04.442Z,6.72
2022-10-26T08:22:31.784Z,6.68
2022-10-26T08:24:59.078Z,6.75
2022-10-26T08:27:26.454Z,6.70
2022-10-26T08:29:53.738Z,6.88
2022-10-26T08:32:21.101Z,8.30
2022-10-26T08:34:48.358Z,7.07
2022-10-26T08:37:15.629Z,7.30
2022-10-26T08:39:42.885Z,7.20
2022-10-26T08:42:36.510Z,7.40
2022-10-26T08:45:11.546Z,6.60
2022-10-26T08:47:44.951Z,6.80
2022-10-26T08:50:15.286Z,7.07
2022-10-26T08:52:51.779Z,6.87
2022-10-26T08:55:20.194Z,6.07
2022-10-26T08:57:50.179Z,6.30
2022-10-26T09:00:25.776Z,6.85
2022-10-26T09:02:54.135Z,4.80
2022-10-26T09:05:44.395Z,6.10
2022-10-26T09:08:18.918Z,6.18
2022-10-26T09:10:46.126Z,5.93
2022-10-26T09:13:13.337Z,5.35
2022-10-26T09:16:03.302Z,6.30
2022-10-26T09:18:39.674Z,5.43
2022-10-26T09:21:16.202Z,5.65
2022-10-26T09:23:46.427Z,6.15
2022-10-26T09:26:14.993Z,5.80
2022-10-26T09:28:42.728Z,6.28
2022-10-26T09:31:14.288Z,5.65
2022-10-26T09:33:41.611Z,6.03
2022-10-26T09:36:16.926Z,6.72
2022-10-26T09:38:56.555Z,7.00
2022-10-26T09:41:25.148Z,6.60
2022-10-26T09:43:57.839Z,8.57
2022-10-26T09:46:31.969Z,9.13
2022-10-26T09:49:00.697Z,8.05
2022-10-26T09:51:29.350Z,8.80
2022-10-26T09:53:58.666Z,8.23
2022-10-26T09:56:27.019Z,9.07
2022-10-26T09:59:02.085Z,9.48
2022-10-26T10:01:38.549Z,10.05
2022-10-26T10:04:11.906Z,9.80
2022-10-26T10:06:39.445Z,10.50
2022-10-26T10:09:13.192Z,11.57
2022-10-26T10:11:41.946Z,11.18
2022-10-26T10:14:10.103Z,10.55
2022-10-26T10:16:37.452Z,11.27
2022-10-26T10:19:04.748Z,9.90
2022-10-26T10:21:39.661Z,9.57
2022-10-26T10:24:25.693Z,9.23
2022-10-26T10:26:58.977Z,9.35
2022-10-26T10:29:27.151Z,9.02
2022-10-26T10:32:01.829Z,8.55
2022-10-26T10:34:32.831Z,8.95
2022-10-26T10:37:00.981Z,8.48
2022-10-26T10:39:35.704Z,8.48
2022-10-26T10:42:04.071Z,7.90
2022-10-26T10:44:33.317Z,7.28
2022-10-26T10:47:04.665Z,7.90
2022-10-26T10:49:32.482Z,8.15
2022-10-26T10:52:00.530Z,7.13
2022-10-26T10:54:35.405Z,6.78
2022-10-26T10:57:05.493Z,7.32
2022-10-26T10:59:35.794Z,5.50
2022-10-26T11:02:22.022Z,6.03
2022-10-26T11:05:05.286Z,5.22
2022-10-26T11:07:34.945Z,4.45
2022-10-26T11:10:03.730Z,5.15
2022-10-26T11:12:38.417Z,4.55
2022-10-26T11:15:12.719Z,4.47
2022-10-26T11:17:58.922Z,4.20
2022-10-26T11:20:28.139Z,3.28
2022-10-26T11:23:06.547Z,3.28
2022-10-26T11:25:41.038Z,3.30
2022-10-26T11:28:17.327Z,2.65
2022-10-26T11:30:47.553Z,3.13
2022-10-26T11:33:38.149Z,2.60
2022-10-26T11:36:06.959Z,3.25
2022-10-26T11:38:46.062Z,3.22
2022-10-26T11:41:23.118Z,2.53
2022-10-26T11:44:02.584Z,2.20
2022-10-26T11:46:32.593Z,2.33
2022-10-26T11:49:01.833Z,2.40
2022-10-26T11:51:47.715Z,2.53
2022-10-26T11:54:18.819Z,2.65
2022-10-26T11:56:50.505Z,2.67
2022-10-26T11:59:20.187Z,2.40
2022-10-26T12:01:48.966Z,3.05
2022-10-26T12:04:17.445Z,3.00
2022-10-26T12:06:45.519Z,3.22
2022-10-26T12:09:21.412Z,4.28
2022-10-26T12:12:03.046Z,3.70
2022-10-26T12:14:35.794Z,3.90
2022-10-26T12:17:21.878Z,3.15
2022-10-26T12:20:09.471Z,3.20
2022-10-26T12:22:40.190Z,2.78
2022-10-26T12:25:16.318Z,2.78
2022-10-26T12:27:43.561Z,3.17
2022-10-26T12:30:19.842Z,2.58
2022-10-26T12:32:48.779Z,3.50
2022-10-26T12:35:35.292Z,2.95
2022-10-26T12:38:22.477Z,3.35
2022-10-26T12:40:50.138Z,3.42
2022-10-26T12:43:17.451Z,4.15
2022-10-26T12:46:07.698Z,3.58
2022-10-26T12:48:50.954Z,3.75
2022-10-26T12:51:27.186Z,4.70
2022-10-26T12:53:57.160Z,5.28
2022-10-26T12:56:37.785Z,4.85
2022-10-26T12:59:10.895Z,4.55
2022-10-26T13:01:45.658Z,3.60
2022-10-26T13:04:21.880Z,3.22
2022-10-26T13:07:13.341Z,2.80
2022-10-26T13:09:40.666Z,2.30
2022-10-26T13:12:07.966Z,2.50
2022-10-26T13:14:37.467Z,2.15
2022-10-26T13:17:08.262Z,2.35
2022-10-26T13:19:43.255Z,2.22
2022-10-26T13:22:17.299Z,2.10
2022-10-26T13:24:49.672Z,2.15
2022-10-26T13:27:16.884Z,2.20
2022-10-26T13:30:02.967Z,2.25
2022-10-26T13:32:31.181Z,1.92
2022-10-26T13:35:00.463Z,2.10
2022-10-26T13:37:28.710Z,2.00
2022-10-26T13:39:56.374Z,2.08
2022-10-26T13:45:10.438Z,2.35
2022-10-26T13:47:46.913Z,2.38
2022-10-26T13:50:22.014Z,2.75
2022-10-26T13:52:52.162Z,3.20
2022-10-26T13:55:22.474Z,2.97
2022-10-26T13:58:04.040Z,3.00
2022-10-26T14:00:33.606Z,3.67
2022-10-26T14:03:00.858Z,3.58
2022-10-26T14:05:28.199Z,3.38
2022-10-26T14:07:57.687Z,3.05
2022-10-26T14:10:28.098Z,2.63
2022-10-26T14:12:55.722Z,3.00
2022-10-26T14:15:27.792Z,2.63
2022-10-26T14:17:56.122Z,2.20
2022-10-26T14:20:24.431Z,2.30
2022-10-26T14:22:52.004Z,2.00
2022-10-26T14:25:26.684Z,1.95
2022-10-26T14:28:04.965Z,2.15
2022-10-26T14:30:33.779Z,2.72
2022-10-26T14:33:01.854Z,1.95
2022-10-26T14:35:31.155Z,1.90
2022-10-26T14:38:01.031Z,1.70
2022-10-26T14:40:29.330Z,1.50
2022-10-26T14:42:58.651Z,1.63
2022-10-26T14:45:29.733Z,1.90
2022-10-26T14:48:20.527Z,2.35
2022-10-26T14:50:59.014Z,2.05
2022-10-26T14:53:31.462Z,3.58
2022-10-26T14:55:59.056Z,4.07
2022-10-26T14:58:30.663Z,4.07
2022-10-26T15:01:16.561Z,3.08
2022-10-26T15:03:48.047Z,3.28
2022-10-26T15:08:56.454Z,3.70
2022-10-26T15:11:24.766Z,3.33
2022-10-26T15:13:52.389Z,3.28
2022-10-26T15:16:21.124Z,3.38
2022-10-26T15:18:51.481Z,2.72
2022-10-26T15:21:18.689Z,2.90
2022-10-26T15:23:45.985Z,2.58
2022-10-26T15:26:13.367Z,2.72
2022-10-26T15:28:44.582Z,2.42
2022-10-26T15:33:38.953Z,2.97
2022-10-26T15:36:08.969Z,3.10
2022-10-26T15:38:36.285Z,3.05
2022-10-26T15:41:07.604Z,2.85
2022-10-26T15:43:34.902Z,2.53
2022-10-26T15:46:02.315Z,2.42
2022-10-26T15:48:31.900Z,2.22
2022-10-26T15:50:59.353Z,2.50
2022-10-26T15:53:31.115Z,2.03
2022-10-26T15:55:59.722Z,1.80
2022-10-26T15:58:27.746Z,1.55
2022-10-26T16:00:55.062Z,1.50
2022-10-26T16:03:23.436Z,1.30
2022-10-26T16:06:01.632Z,1.20
2022-10-26T16:08:30.784Z,1.80
2022-10-26T16:10:58.251Z,1.23
2022-10-26T16:13:26.819Z,1.30
2022-10-26T16:15:54.286Z,1.10
2022-10-26T16:18:21.505Z,1.50
2022-10-26T16:20:48.829Z,1.58
2022-10-26T16:23:16.151Z,1.45
2022-10-26T16:25:45.265Z,1.60
2022-10-26T16:28:13.830Z,2.60
2022-10-26T16:33:13.324Z,1.98
2022-10-26T16:35:40.630Z,1.95
2022-10-26T16:38:07.976Z,1.60
2022-10-26T16:40:35.274Z,2.10
2022-10-26T16:43:02.578Z,1.80
2022-10-26T16:45:29.875Z,2.53
2022-10-26T16:47:58.053Z,1.83
2022-10-26T16:50:25.377Z,2.28
2022-10-26T16:52:52.627Z,2.28
2022-10-26T16:55:24.540Z,1.92
2022-10-26T16:57:52.102Z,2.03
2022-10-26T17:00:19.790Z,2.55
2022-10-26T17:02:47.045Z,2.00
2022-10-26T17:05:15.687Z,2.20
2022-10-26T17:07:42.943Z,1.98
2022-10-26T17:10:12.946Z,1.90
2022-10-26T17:12:40.235Z,2.10
2022-10-26T17:15:09.074Z,2.05
2022-10-26T17:17:36.407Z,1.50
2022-10-26T17:20:03.876Z,1.90
2022-10-26T17:22:31.233Z,1.50
2022-10-26T17:24:58.564Z,2.00
2022-10-26T17:27:26.763Z,2.15
2022-10-26T17:29:54.144Z,2.00
2022-10-26T17:32:22.422Z,2.78
2022-10-26T17:34:49.743Z,2.40
2022-10-26T17:37:17.211Z,2.70
2022-10-26T17:39:44.533Z,2.83
2022-10-26T17:42:11.800Z,2.88
2022-10-26T17:44:39.239Z,2.97
2022-10-26T17:47:06.582Z,3.97
2022-10-26T17:49:36.291Z,4.35
2022-10-26T17:52:03.866Z,3.60
2022-10-26T17:54:31.158Z,4.20
2022-10-26T17:56:58.877Z,3.22
2022-10-26T17:59:26.268Z,2.75
2022-10-26T18:01:53.664Z,1.60
2022-10-26T18:04:22.405Z,1.70
2022-10-26T18:06:50.636Z,1.88
2022-10-26T18:09:17.968Z,1.55
2022-10-26T18:11:45.211Z,1.42
2022-10-26T18:14:13.887Z,1.77
2022-10-26T18:16:41.139Z,1.23
2022-10-26T18:19:08.953Z,1.90
2022-10-26T18:21:37.796Z,1.40
2022-10-26T18:24:05.898Z,1.42
2022-10-26T18:26:33.490Z,1.50
2022-10-26T18:29:01.729Z,1.60
2022-10-26T18:31:30.264Z,1.80
2022-10-26T18:33:58.659Z,1.65
2022-10-26T18:36:26.323Z,1.55
2022-10-26T18:38:54.117Z,1.73
2022-10-26T18:41:22.183Z,1.80
2022-10-26T18:43:53.285Z,1.60
2022-10-26T18:46:24.410Z,1.70
2022-10-26T18:51:19.699Z,1.60
2022-10-26T18:53:47.341Z,1.85
2022-10-26T18:56:15.899Z,4.07
2022-10-26T18:58:44.125Z,10.05
2022-10-26T19:01:16.030Z,15.18
2022-10-26T19:03:43.851Z,19.33
2022-10-26T19:06:12.524Z,26.58
2022-10-26T19:08:39.929Z,25.63
2022-10-26T19:11:08.732Z,12.23
2022-10-26T19:13:36.227Z,9.73
2022-10-26T19:16:12.735Z,6.75
2022-10-26T19:18:56.204Z,4.72
2022-10-26T19:21:24.454Z,3.92
2022-10-26T19:23:52.879Z,2.70
2022-10-26T19:26:21.350Z,2.65
2022-10-26T19:28:48.761Z,3.50
2022-10-26T19:31:16.112Z,3.72
2022-10-26T19:33:43.515Z,3.72
2022-10-26T19:36:12.601Z,4.20
2022-10-26T19:38:39.944Z,2.60
2022-10-26T19:41:08.473Z,2.25
2022-10-26T19:43:36.701Z,2.28
2022-10-26T19:46:09.136Z,2.55
2022-10-26T19:48:36.639Z,2.67
2022-10-26T19:51:04.446Z,3.08
2022-10-26T19:53:31.771Z,3.20
2022-10-26T19:55:59.869Z,4.28
2022-10-26T19:58:27.690Z,4.45
2022-10-26T20:01:01.206Z,4.72
2022-10-26T20:03:29.221Z,5.38
2022-10-26T20:05:57.312Z,5.43
2022-10-26T20:08:24.779Z,5.47
2022-10-26T20:10:53.993Z,6.55
2022-10-26T20:13:21.588Z,5.40
2022-10-26T20:15:51.285Z,5.80
2022-10-26T20:18:18.782Z,6.00
2022-10-26T20:20:46.249Z,6.13
2022-10-26T20:23:14.055Z,6.70
2022-10-26T20:25:48.620Z,5.90
2022-10-26T20:28:16.720Z,6.60
2022-10-26T20:30:44.691Z,6.72
2022-10-26T20:33:12.171Z,5.57
2022-10-26T20:35:42.030Z,3.45
2022-10-26T20:38:15.325Z,3.38
2022-10-26T20:40:42.706Z,3.17
2022-10-26T20:43:10.617Z,3.38
2022-10-26T20:45:37.987Z,3.70
2022-10-26T20:48:05.465Z,3.30
2022-10-26T20:50:33.333Z,3.40
2022-10-26T20:53:00.594Z,3.55
2022-10-26T20:55:42.942Z,3.20
2022-10-26T20:58:42.640Z,3.05
2022-10-26T21:01:19.651Z,3.38
2022-10-26T21:03:47.008Z,3.60
2022-10-26T21:06:14.225Z,3.33
2022-10-26T21:08:41.561Z,3.65
2022-10-26T21:11:08.900Z,3.83
2022-10-26T21:13:36.225Z,3.20
2022-10-26T21:16:07.378Z,3.35
2022-10-26T21:21:02.200Z,3.80
2022-10-26T21:23:33.213Z,3.20
2022-10-26T21:26:00.911Z,3.65
2022-10-26T21:28:38.726Z,3.08
2022-10-26T21:31:06.687Z,2.80
2022-10-26T21:33:34.082Z,3.00
2022-10-26T21:36:05.593Z,3.13
2022-10-26T21:38:33.334Z,3.40
2022-10-26T21:41:09.690Z,3.20
2022-10-26T21:43:37.796Z,3.17
2022-10-26T21:46:05.113Z,3.55
2022-10-26T21:48:32.959Z,3.17
2022-10-26T21:51:02.243Z,2.92
2022-10-26T21:53:29.883Z,2.38
2022-10-26T21:56:04.235Z,2.47
2022-10-26T21:58:31.695Z,3.17
2022-10-26T22:01:06.087Z,2.83
2022-10-26T22:03:33.506Z,2.75
2022-10-26T22:06:01.077Z,2.80
2022-10-26T22:08:28.605Z,2.35
2022-10-26T22:10:56.075Z,2.42
2022-10-26T22:13:23.700Z,2.33
2022-10-26T22:16:00.855Z,2.50
2022-10-26T22:18:28.107Z,2.40
2022-10-26T22:20:59.384Z,2.60
2022-10-26T22:23:26.697Z,2.55
2022-10-26T22:25:54.198Z,3.00
2022-10-26T22:28:21.477Z,2.88
2022-10-26T22:30:48.858Z,2.47
2022-10-26T22:33:16.090Z,2.33
2022-10-26T22:35:43.741Z,2.45
2022-10-26T22:38:10.983Z,2.50
2022-10-26T22:40:38.250Z,2.38
2022-10-26T22:43:05.555Z,2.47
2022-10-26T22:45:32.857Z,2.20
2022-10-26T22:48:00.173Z,2.20
2022-10-26T22:50:27.446Z,2.30
2022-10-26T22:52:54.693Z,2.50
2022-10-26T22:55:21.946Z,2.50
2022-10-26T22:57:49.558Z,2.78
2022-10-26T23:00:17.343Z,2.20
2022-10-26T23:02:44.587Z,2.25
2022-10-26T23:05:11.833Z,2.30
2022-10-26T23:07:39.148Z,2.35
2022-10-26T23:10:06.636Z,2.25
2022-10-26T23:12:33.929Z,1.90
2022-10-26T23:15:01.196Z,1.92
2022-10-26T23:17:30.698Z,2.40
2022-10-26T23:19:57.953Z,1.90
2022-10-26T23:22:26.449Z,1.70
2022-10-26T23:24:53.871Z,1.73
2022-10-26T23:27:21.100Z,1.60
2022-10-26T23:29:48.350Z,1.50
2022-10-26T23:32:15.598Z,1.90
2022-10-26T23:34:42.903Z,1.60
2022-10-26T23:37:12.650Z,1.98
2022-10-26T23:39:39.992Z,1.95
2022-10-26T23:42:07.251Z,1.73
2022-10-26T23:44:34.490Z,1.60
2022-10-26T23:47:01.811Z,1.65
2022-10-26T23:49:29.130Z,1.40
2022-10-26T23:51:56.422Z,1.40
2022-10-26T23:54:23.690Z,1.30
2022-10-26T23:56:50.951Z,1.30
2022-10-26T23:59:19.713Z,1.45
